This is the latest recevied weather packets stored in our database for station/object SQ5SUI-3. If no packets are shown the sender has not sent any weather packets the latest 10 day(s).
| Time | Temp. | Humidity | Pressure | Rain* | Wind** | Luminosity | Snow |
|---|---|---|---|---|---|---|---|
| 1777779058 | 8.89° C | 70% | 1006.4 hPa | 0 mm | - | - | - |
| 1777777259 | 9.44° C | 68% | 1006.5 hPa | 0 mm | - | - | - |
| 1777775458 | 9.44° C | 68% | 1006.5 hPa | 0 mm | - | - | - |
| 1777773660 | 10° C | 66% | 1006.5 hPa | 0 mm | - | - | - |
| 1777771860 | 10° C | 65% | 1006.6 hPa | 0 mm | - | - | - |
| 1777770059 | 11.67° C | 61% | 1006.5 hPa | 0 mm | - | - | - |
| 1777768260 | 11.11° C | 63% | 1006.4 hPa | 0 mm | - | - | - |
| 1777766459 | 12.22° C | 60% | 1006.5 hPa | 0 mm | - | - | - |
| 1777764660 | 11.67° C | 62% | 1006.4 hPa | 0 mm | - | - | - |
| 1777762860 | 12.22° C | 60% | 1006.3 hPa | 0 mm | - | - | - |
| 1777761059 | 13.33° C | 58% | 1006.3 hPa | 0 mm | - | - | - |
| 1777759258 | 13.89° C | 56% | 1006.4 hPa | 0 mm | - | - | - |
| 1777757459 | 12.22° C | 60% | 1006.2 hPa | 0 mm | - | - | - |
| 1777755659 | 13.33° C | 57% | 1006.2 hPa | 0 mm | - | - | - |
| 1777753858 | 14.44° C | 53% | 1006 hPa | 0 mm | - | - | - |
| 1777752059 | 13.89° C | 55% | 1006.1 hPa | 0 mm | - | - | - |
| 1777750259 | 13.33° C | 54% | 1006 hPa | 0 mm | - | - | - |
| 1777748458 | 12.78° C | 58% | 1006 hPa | 0 mm | - | - | - |
| 1777746658 | 13.89° C | 52% | 1006.2 hPa | 0 mm | - | - | - |
| 1777744858 | 16.67° C | 43% | 1006.4 hPa | 0 mm | - | - | - |
| 1777743060 | 24.44° C | 24% | 1006.3 hPa | 0 mm | - | - | - |
| 1777741260 | 27.78° C | 12% | 1006.1 hPa | 0 mm | - | - | - |
| 1777739458 | 27.22° C | 10% | 1006 hPa | 0 mm | - | - | - |
| 1777737658 | 27.78° C | 10% | 1005.7 hPa | 0 mm | - | - | - |
| 1777735859 | 26.11° C | 10% | 1005.1 hPa | 0 mm | - | - | - |
* Rain latest hour (hover to see other rain measurements)
** Current wind speed in m/s (hover to see current wind gust speed)